Airfield :
LOGIN :

Register | Disclaimer

   EN    FR    IT 

 










Legend :    VFR   Marginal VFR   IFR   Intensive IFR   Very Intensive IFR
Visi :
Ceiling :
>= 8 km
>= 3000ft
5 to 8 km
1000 to 3000 ft
1500m to 5 km
500 to 1000 ft
800 to 1500m
200 to 500 ft
< 800m
< 200 ft
Symbols :   Thunderstorms  Fog  Heavy snow  Heavy precipitations  Wind > 20 kt
SIGMETs :     Misc.  Thunderstorms  Icing  Turbulence  Mountain Waves  Volcanic Ashes







- Airport Elevation : 306 ft
- IATA code : EMA
- Download approach charts


EGNX - Nottingham East Midlands

CURRENT METAR :
  • 191220Z 07007KT 0700 R27/0900 FG OVC002 13/13 Q1002 RERA

EXPIRED METARs :
  • 191150Z 07006KT 1400 R27/P1500 RA OVC002 13/13 Q1003
  • 191050Z 06006KT 0900 R27/1400 RA FG FEW001 BKN003 12/12 Q1004
  • 191020Z VRB03KT 1800 RA FEW002 OVC003 12/12 Q1005
  • 190950Z 09003KT 2500 -RA OVC003 12/12 Q1005

TAF AMD TAF EGNX
Valid from the 19 at 12:00 until the 20 at 12:00 UTC


191227Z 1912/2012 11004KT 0700 FG BKN001
BECMG 1912/1915 9999 NSW SCT005
TEMPO 1912/1915 RADZ
BECMG 1919/1922 14014KT
TEMPO 1919/1922 18017G27KT 7000 RA BKN009
TEMPO 2003/2009 8000 BKN006
PROB30
TEMPO 2003/2006 BKN004
BECMG 2006/2009 26014KT
PROB30
TEMPO 2009/2012 BKN008
ATIS : +44 1332 852 852 (ext 3201)
No reported NOTAMs for that airfield.



MET'MAP, your aeronautical weather chart ! - Copyright ORBIFLY December 2007 - Disclaimer

ORBIFLY MET'MAP TEAM :

Programming & Development : Alexandra Zaïnal
Concept & Development : Baudouin d'Aumeries
Co-Development & Prog : Marc-Olivier Méhu
Technical & hardware support : Manuel Goepfert

Contact : metmap@orbifly.com




SOURCES & CREDITS :

   NOAA